KCH weather

Kuching International Airport
Kuching, Sarawak, Malaysia

Public forecast

Using degrees Celsius for public forecast. Weather courtesy of forecast.io.

Current aviation weather report (METAR) for Kuching International Airport

Retrieved 2019/11/22 03:30 UTC (20 minutes ago):

WBGG 220330Z VRB04KT 9999 SCT018 SCT150 BKN300 31/25 Q1012 NOSIG

Aviation forecast (TAF) for Kuching International Airport

Retrieved 2019-11-22 00:10 UTC (4 hours ago):

TAF WBGG 212300Z 2200/2300 VRB03KT 9999 SCT020 TEMPO 2204/2208 30010KT 4000 TSRA FEW015CB